createdAt,value
2023-03-05T00:00:10.537Z,1004.2
2023-03-05T00:10:16.739Z,1004.1
2023-03-05T00:20:23.159Z,1004.1
2023-03-05T00:30:29.248Z,1004.1
2023-03-05T00:40:35.569Z,1004.1
2023-03-05T00:50:41.979Z,1004.1
2023-03-05T01:00:48.031Z,1003.9
2023-03-05T01:10:54.432Z,1003.9
2023-03-05T01:21:00.678Z,1003.8
2023-03-05T01:31:06.873Z,1003.7
2023-03-05T01:41:13.226Z,1003.6
2023-03-05T01:51:19.502Z,1003.5
2023-03-05T02:01:25.732Z,1003.4
2023-03-05T02:11:32.038Z,1003.3
2023-03-05T02:21:38.249Z,1003.1
2023-03-05T02:31:44.560Z,1003
2023-03-05T02:41:50.780Z,1002.9
2023-03-05T02:51:57.029Z,1002.9
2023-03-05T03:02:03.401Z,1002.9
2023-03-05T03:12:09.678Z,1002.8
2023-03-05T03:22:15.890Z,1002.8
2023-03-05T03:32:22.158Z,1002.7
2023-03-05T03:42:28.445Z,1002.8
2023-03-05T03:52:34.655Z,1002.6
2023-03-05T04:02:40.974Z,1002.6
2023-03-05T04:12:47.152Z,1002.5
2023-03-05T04:22:53.477Z,1002.5
2023-03-05T04:32:59.681Z,1002.6
2023-03-05T04:43:05.957Z,1002.5
2023-03-05T04:53:12.239Z,1002.4
2023-03-05T05:03:18.502Z,1002.3
2023-03-05T05:13:24.737Z,1002.2
2023-03-05T05:23:31.003Z,1002.1
2023-03-05T05:33:37.205Z,1002
2023-03-05T05:43:43.420Z,1001.9
2023-03-05T05:53:49.707Z,1001.9
2023-03-05T06:03:55.864Z,1001.9
2023-03-05T06:14:02.050Z,1001.8
2023-03-05T06:24:08.290Z,1001.9
2023-03-05T06:34:14.469Z,1001.8
2023-03-05T06:44:20.686Z,1001.8
2023-03-05T06:54:27.013Z,1001.9
2023-03-05T07:04:33.109Z,1001.9
2023-03-05T07:14:39.306Z,1001.9
2023-03-05T07:24:45.612Z,1002
2023-03-05T07:44:57.929Z,1001.9
2023-03-05T07:55:04.196Z,1001.9
2023-03-05T08:05:10.372Z,1001.8
2023-03-05T08:15:16.753Z,1001.8
2023-03-05T08:25:22.804Z,1001.8
2023-03-05T08:35:29.001Z,1001.7
2023-03-05T08:45:35.211Z,1001.6
2023-03-05T08:55:41.486Z,1001.6
2023-03-05T09:05:47.642Z,1001.5
2023-03-05T09:15:53.858Z,1001.4
2023-03-05T09:26:00.066Z,1001.3
2023-03-05T09:36:06.276Z,1001.2
2023-03-05T09:46:12.462Z,1001.2
2023-03-05T09:56:18.782Z,1001.1
2023-03-05T10:06:24.894Z,1001
2023-03-05T10:16:31.115Z,1000.9
2023-03-05T10:26:37.331Z,1000.8
2023-03-05T10:36:43.541Z,1000.8
2023-03-05T10:46:49.763Z,1000.7
2023-03-05T10:56:55.952Z,1000.6
2023-03-05T11:07:02.245Z,1000.5
2023-03-05T11:17:08.391Z,1000.4
2023-03-05T11:27:14.613Z,1000.3
2023-03-05T11:37:20.790Z,1000.2
2023-03-05T11:47:27.018Z,1000
2023-03-05T11:57:33.218Z,999.8
2023-03-05T12:07:39.453Z,999.7
2023-03-05T12:17:45.735Z,999.5
2023-03-05T12:27:52.069Z,999.4
2023-03-05T12:37:58.184Z,999.2
2023-03-05T12:48:04.370Z,999.1
2023-03-05T12:58:10.616Z,999
2023-03-05T13:08:16.843Z,998.9
2023-03-05T13:18:22.983Z,998.8
2023-03-05T13:28:29.372Z,998.7
2023-03-05T13:38:35.695Z,998.6
2023-03-05T13:48:41.772Z,998.4
2023-03-05T13:58:48.013Z,998.3
2023-03-05T14:08:54.330Z,998.2
2023-03-05T14:19:00.510Z,998
2023-03-05T14:29:06.735Z,997.9
2023-03-05T14:39:12.961Z,997.8
2023-03-05T14:49:19.117Z,997.6
2023-03-05T14:59:25.551Z,997.5
2023-03-05T15:09:31.756Z,997.4
2023-03-05T15:19:37.856Z,997.2
2023-03-05T15:29:44.079Z,997.1
2023-03-05T15:39:50.271Z,997
2023-03-05T15:49:56.556Z,996.9
2023-03-05T16:00:02.769Z,996.9
2023-03-05T16:10:08.928Z,996.8
2023-03-05T16:20:15.370Z,996.7
2023-03-05T16:30:21.508Z,996.5
2023-03-05T16:40:27.836Z,996.5
2023-03-05T16:50:33.011Z,996.4
2023-03-05T17:00:39.297Z,996.4
2023-03-05T17:10:45.574Z,996.4
2023-03-05T17:20:51.768Z,996.4
2023-03-05T17:30:57.908Z,996.3
2023-03-05T17:41:04.108Z,996.3
2023-03-05T17:51:10.445Z,996.2
2023-03-05T18:01:16.711Z,996.3
2023-03-05T18:11:22.967Z,996.2
2023-03-05T18:21:29.263Z,996.1
2023-03-05T18:31:35.437Z,996
2023-03-05T18:41:41.717Z,995.9
2023-03-05T18:51:48.007Z,995.8
2023-03-05T19:01:54.237Z,995.7
2023-03-05T19:12:00.477Z,995.7
2023-03-05T19:22:06.876Z,995.7
2023-03-05T19:32:13.070Z,995.6
2023-03-05T19:42:19.449Z,995.5
2023-03-05T19:52:25.715Z,995.5
2023-03-05T20:02:31.831Z,995.4
2023-03-05T20:12:38.052Z,995.3
2023-03-05T20:22:44.339Z,995.2
2023-03-05T20:32:50.751Z,995.2
2023-03-05T20:42:57.039Z,995.1
2023-03-05T20:53:03.308Z,995
2023-03-05T21:03:09.532Z,994.9
2023-03-05T21:13:15.909Z,994.8
2023-03-05T21:23:22.042Z,994.7
2023-03-05T21:33:28.382Z,994.7
2023-03-05T21:43:34.583Z,994.5
2023-03-05T21:53:40.884Z,994.3
2023-03-05T22:03:47.090Z,994.1
2023-03-05T22:13:53.369Z,994
2023-03-05T22:23:59.617Z,993.8
2023-03-05T22:34:05.915Z,993.7
2023-03-05T22:44:12.175Z,993.6
2023-03-05T22:54:18.551Z,993.5
2023-03-05T23:04:24.671Z,993.3
2023-03-05T23:14:30.946Z,993.3
2023-03-05T23:24:37.215Z,993.1
2023-03-05T23:34:43.481Z,993.1
2023-03-05T23:44:49.725Z,993
2023-03-05T23:54:56.003Z,993
